Time;durP1;ratioP1;P1;durP2;ratioP2;P2;SDS_P1;SDS_P2;PMS_P1;PMS_P2;Temp;Humidity;BMP_temperature;BMP_pressure;BME280_temperature;BME280_humidity;BME280_pressure;Samples;Min_cycle;Max_cycle;Signal;HPM_P1;HPM_P2
2021/06/14 00:00:52;;;;;;;14.93;5.22;;;;;;;11.08;70.27;97713.72;1862631;75;25871;-83
2021/06/14 00:03:18;;;;;;;9.43;4.45;;;;;;;11.03;70.35;97707.25;1859210;75;25858;-83
2021/06/14 00:05:46;;;;;;;12.07;4.55;;;;;;;11.01;70.76;97710.67;1833063;75;25752;-84
2021/06/14 00:08:19;;;;;;;10.82;5.05;;;;;;;11.01;70.99;97711.51;1858567;75;25647;-83
2021/06/14 00:10:48;;;;;;;11.40;5.45;;;;;;;10.95;71.10;97711.00;1873184;75;27343;-83
2021/06/14 00:13:16;;;;;;;12.88;4.75;;;;;;;10.96;71.12;97705.91;1869369;75;26304;-82
2021/06/14 00:15:45;;;;;;;11.08;4.97;;;;;;;10.94;71.33;97701.23;1858261;76;25280;-83
2021/06/14 00:18:13;;;;;;;14.93;5.33;;;;;;;10.95;71.46;97700.20;1836751;76;26622;-83
2021/06/14 00:20:41;;;;;;;13.40;5.35;;;;;;;10.91;71.54;97693.53;1834085;75;25820;-84
2021/06/14 00:23:10;;;;;;;20.30;5.70;;;;;;;10.86;71.60;97697.91;1860913;75;28203;-83
2021/06/14 00:25:37;;;;;;;13.40;5.05;;;;;;;10.81;71.65;97702.56;1831170;76;25819;-83
2021/06/14 00:28:04;;;;;;;14.63;5.00;;;;;;;10.80;71.98;97703.59;1834638;76;25732;-82
2021/06/14 00:30:36;;;;;;;10.82;5.20;;;;;;;10.77;71.99;97702.64;1838130;77;25732;-82
2021/06/14 00:33:04;;;;;;;14.73;6.03;;;;;;;10.79;72.08;97705.98;1807759;79;25623;-82
2021/06/14 00:35:31;;;;;;;13.30;5.90;;;;;;;10.74;71.86;97705.78;1845874;77;27357;-82
2021/06/14 00:37:58;;;;;;;14.78;5.42;;;;;;;10.72;71.97;97703.28;1850312;76;26426;-80
2021/06/14 00:40:26;;;;;;;11.55;5.55;;;;;;;10.76;71.77;97695.58;1866223;76;25711;-82
2021/06/14 00:42:52;;;;;;;11.33;5.40;;;;;;;10.79;71.78;97697.36;1862209;76;26443;-85
2021/06/14 00:45:24;;;;;;;15.38;5.60;;;;;;;10.75;71.88;97693.40;1854882;76;25769;-83
2021/06/14 00:47:51;;;;;;;15.13;6.05;;;;;;;10.76;72.20;97698.28;1847910;76;27362;-82
2021/06/14 00:50:23;;;;;;;10.18;5.60;;;;;;;10.75;72.19;97696.09;1841401;76;25756;-85
2021/06/14 00:52:50;;;;;;;13.58;6.03;;;;;;;10.79;72.24;97691.13;1833613;77;25796;-83
2021/06/14 00:55:18;;;;;;;14.18;6.05;;;;;;;10.81;72.28;97703.91;1843462;76;25692;-81
2021/06/14 00:57:45;;;;;;;13.68;6.40;;;;;;;10.82;72.23;97697.47;1832415;77;26441;-81
2021/06/14 01:00:13;;;;;;;11.33;5.75;;;;;;;10.80;72.11;97700.38;1845901;76;27330;-84
2021/06/14 01:02:40;;;;;;;14.13;5.90;;;;;;;10.83;72.25;97699.14;1845785;77;26483;-82
2021/06/14 01:05:11;;;;;;;10.78;6.25;;;;;;;10.84;72.28;97708.91;1873152;76;25710;-81
2021/06/14 01:07:38;;;;;;;13.55;6.50;;;;;;;10.77;72.65;97708.05;1862638;76;26453;-82
2021/06/14 01:10:08;;;;;;;10.65;5.20;;;;;;;10.75;72.81;97703.36;1854222;76;25657;-82
2021/06/14 01:12:39;;;;;;;13.75;6.30;;;;;;;10.75;72.78;97702.02;1846972;76;27410;-82
2021/06/14 01:15:16;;;;;;;12.07;5.83;;;;;;;10.78;72.82;97705.66;1827597;76;25753;-81
2021/06/14 01:17:51;;;;;;;12.73;6.00;;;;;;;10.76;72.90;97703.69;1795129;79;25707;-80
2021/06/14 01:20:44;;;;;;;10.40;5.12;;;;;;;10.75;73.05;97705.55;1772450;79;25777;-79
2021/06/14 01:23:22;;;;;;;15.05;6.15;;;;;;;10.76;72.92;97699.63;1796015;79;25668;-80
2021/06/14 01:25:55;;;;;;;12.95;5.87;;;;;;;10.82;73.03;97710.98;1837810;76;28152;-81
2021/06/14 01:28:23;;;;;;;15.20;6.35;;;;;;;10.74;73.13;97693.63;1853618;76;25685;-81
2021/06/14 01:30:52;;;;;;;13.60;5.67;;;;;;;10.70;73.26;97704.52;1854747;76;25239;-80
2021/06/14 01:33:23;;;;;;;12.25;5.97;;;;;;;10.67;73.44;97704.40;1855370;75;25726;-81
2021/06/14 01:35:57;;;;;;;13.70;6.45;;;;;;;10.69;73.35;97704.20;1832175;77;26352;-80
2021/06/14 01:38:28;;;;;;;13.22;5.65;;;;;;;10.63;73.22;97703.14;1854909;75;27527;-80
2021/06/14 01:41:00;;;;;;;14.83;5.83;;;;;;;10.61;73.59;97709.28;1850839;76;26255;-80
2021/06/14 01:43:30;;;;;;;15.08;6.15;;;;;;;10.55;73.51;97700.63;1836853;77;25668;-80
2021/06/14 01:46:02;;;;;;;10.28;5.33;;;;;;;10.57;73.62;97709.88;1838201;76;26494;-81
2021/06/14 01:48:29;;;;;;;11.08;6.05;;;;;;;10.53;73.71;97712.15;1866141;76;25767;-80
2021/06/14 01:50:58;;;;;;;17.45;6.10;;;;;;;10.53;73.62;97703.22;1854180;76;27365;-80
2021/06/14 01:53:26;;;;;;;13.28;6.75;;;;;;;10.58;73.60;97711.55;1854942;75;25739;-82
2021/06/14 01:55:53;;;;;;;12.30;6.28;;;;;;;10.60;73.85;97706.78;1877175;75;25276;-82
2021/06/14 01:58:21;;;;;;;15.15;6.33;;;;;;;10.61;73.71;97711.98;1845338;75;25755;-81
2021/06/14 02:00:49;;;;;;;12.82;6.47;;;;;;;10.58;73.71;97709.69;1849396;75;25749;-82
2021/06/14 02:03:16;;;;;;;16.15;6.78;;;;;;;10.52;73.79;97709.65;1830995;76;28252;-82
2021/06/14 02:05:46;;;;;;;12.35;6.10;;;;;;;10.45;73.92;97706.95;1854775;76;25739;-80
2021/06/14 02:08:15;;;;;;;11.33;6.45;;;;;;;10.47;73.88;97704.88;1826243;76;25560;-80
2021/06/14 02:10:42;;;;;;;12.75;5.83;;;;;;;10.54;73.79;97711.63;1837369;76;25688;-80
2021/06/14 02:13:11;;;;;;;15.32;6.70;;;;;;;10.57;73.69;97704.48;1854894;77;25688;-79
2021/06/14 02:15:38;;;;;;;14.70;7.12;;;;;;;10.60;73.53;97709.48;1831116;76;27349;-80
2021/06/14 02:18:07;;;;;;;13.85;6.47;;;;;;;10.65;73.63;97713.73;1837235;76;25744;-81
2021/06/14 02:20:34;;;;;;;13.65;6.05;;;;;;;10.65;73.69;97712.38;1844149;76;25748;-80
2021/06/14 02:23:01;;;;;;;12.82;6.90;;;;;;;10.66;73.62;97711.35;1854609;76;25741;-81
2021/06/14 02:25:28;;;;;;;13.58;6.20;;;;;;;10.66;73.71;97708.66;1853948;76;26309;-82
2021/06/14 02:27:54;;;;;;;14.05;6.28;;;;;;;10.58;73.71;97711.55;1857569;76;27389;-82
2021/06/14 02:30:25;;;;;;;11.25;6.28;;;;;;;10.56;73.88;97702.82;1852876;76;25723;-83
2021/06/14 02:32:52;;;;;;;13.30;6.65;;;;;;;10.53;73.94;97701.87;1852799;76;25787;-81
2021/06/14 02:35:22;;;;;;;13.65;6.00;;;;;;;10.53;73.99;97711.31;1854554;76;26538;-82
2021/06/14 02:37:54;;;;;;;14.38;6.53;;;;;;;10.52;74.08;97705.09;1855003;76;25658;-81
2021/06/14 02:40:25;;;;;;;17.30;7.00;;;;;;;10.54;73.91;97710.28;1801180;79;28141;-82
2021/06/14 02:42:52;;;;;;;15.25;6.28;;;;;;;10.57;73.87;97705.32;1862004;76;25749;-82
2021/06/14 02:45:19;;;;;;;14.73;5.97;;;;;;;10.51;73.91;97705.28;1845813;76;25859;-83
2021/06/14 02:47:49;;;;;;;10.45;5.58;;;;;;;10.41;74.07;97711.91;1858562;76;25741;-82
2021/06/14 02:50:19;;;;;;;13.05;5.45;;;;;;;10.37;74.16;97713.38;1866320;76;25670;-82
2021/06/14 02:52:49;;;;;;;13.85;6.40;;;;;;;10.34;74.30;97720.52;1862227;76;27335;-81
2021/06/14 02:55:19;;;;;;;18.20;6.50;;;;;;;10.28;74.35;97710.52;1845653;77;25689;-83
2021/06/14 02:57:53;;;;;;;18.00;6.85;;;;;;;10.26;74.51;97713.95;1862261;76;25884;-83
2021/06/14 03:00:24;;;;;;;12.95;6.42;;;;;;;10.22;74.50;97714.03;1848318;76;25706;-83
2021/06/14 03:02:59;;;;;;;16.20;7.15;;;;;;;10.22;74.60;97714.55;1781387;79;25808;-83
2021/06/14 03:05:28;;;;;;;16.25;5.92;;;;;;;10.18;74.58;97716.80;1795280;79;28378;-82
2021/06/14 03:07:58;;;;;;;12.43;6.28;;;;;;;10.15;74.61;97722.56;1795085;79;26047;-82
2021/06/14 03:10:27;;;;;;;19.17;6.90;;;;;;;10.16;74.73;97718.83;1795118;79;25800;-82
2021/06/14 03:12:56;;;;;;;18.45;6.78;;;;;;;10.13;74.75;97721.95;1797757;79;26572;-82
2021/06/14 03:15:25;;;;;;;11.85;6.33;;;;;;;10.12;74.77;97725.69;1789677;79;25802;-82
2021/06/14 03:17:53;;;;;;;16.20;6.22;;;;;;;10.14;74.90;97726.32;1845725;77;27447;-83
2021/06/14 03:20:22;;;;;;;14.78;6.28;;;;;;;10.13;74.88;97728.70;1847349;76;26202;-81
2021/06/14 03:22:49;;;;;;;14.10;6.22;;;;;;;10.12;74.92;97727.03;1870278;76;25665;-82
2021/06/14 03:25:17;;;;;;;11.57;6.22;;;;;;;10.11;74.99;97726.72;1850068;76;26353;-82
2021/06/14 03:27:45;;;;;;;14.28;6.00;;;;;;;10.10;75.06;97723.70;1856816;76;25779;-82
2021/06/14 03:30:13;;;;;;;27.30;7.22;;;;;;;10.08;75.07;97729.80;1860673;76;27412;-82
2021/06/14 03:32:43;;;;;;;17.35;6.05;;;;;;;10.06;75.13;97731.35;1850689;76;25741;-82
2021/06/14 03:35:14;;;;;;;12.15;5.75;;;;;;;10.01;75.15;97731.65;1847665;76;25650;-82
2021/06/14 03:37:41;;;;;;;20.65;7.20;;;;;;;10.02;75.25;97737.36;1823173;77;25808;-81
2021/06/14 03:40:11;;;;;;;14.85;6.00;;;;;;;10.03;75.37;97733.09;1845987;77;25656;-81
2021/06/14 03:42:38;;;;;;;17.07;7.20;;;;;;;10.05;75.46;97731.55;1873060;76;28212;-82
2021/06/14 03:45:07;;;;;;;19.77;6.53;;;;;;;10.08;75.47;97728.45;1845721;77;26355;-82
2021/06/14 03:47:34;;;;;;;15.23;7.22;;;;;;;10.08;75.42;97727.94;1845853;76;25781;-83
2021/06/14 03:50:02;;;;;;;12.60;6.03;;;;;;;10.15;75.46;97727.95;1845414;76;26406;-82
2021/06/14 03:52:28;;;;;;;12.65;6.87;;;;;;;;;;1835272;77;25810;-82
2021/06/14 03:54:55;;;;;;;15.03;6.12;;;;;;;10.10;75.33;97729.09;1856634;76;27447;-82
2021/06/14 03:57:21;;;;;;;15.23;6.85;;;;;;;10.09;75.29;97732.31;1861910;76;25662;-82
2021/06/14 03:59:48;;;;;;;22.87;10.05;;;;;;;10.11;75.42;97729.41;1853191;76;25841;-81
2021/06/14 04:02:15;;;;;;;35.00;15.05;;;;;;;10.12;75.36;97733.78;1862709;76;26435;-82
2021/06/14 04:07:08;;;;;;;19.20;10.40;;;;;;;10.22;75.27;97734.27;1846145;77;27352;-81
2021/06/14 04:09:36;;;;;;;17.00;8.20;;;;;;;10.27;75.15;97733.64;1827589;76;26441;-83
2021/06/14 04:12:04;;;;;;;20.10;8.05;;;;;;;10.31;75.02;97729.00;1802624;79;25713;-82
2021/06/14 04:14:31;;;;;;;16.32;6.50;;;;;;;10.31;75.02;97726.30;1845883;77;26515;-81
2021/06/14 04:16:58;;;;;;;15.78;6.72;;;;;;;10.30;75.03;97727.34;1846022;76;25675;-82
2021/06/14 04:19:25;;;;;;;15.43;7.08;;;;;;;10.29;75.07;97729.72;1854431;76;27352;-81
2021/06/14 04:21:52;;;;;;;15.80;6.92;;;;;;;10.24;75.04;97727.33;1842509;76;26368;-81
2021/06/14 04:24:18;;;;;;;14.28;6.10;;;;;;;10.26;75.13;97735.53;1845450;76;25703;-82
2021/06/14 04:26:45;;;;;;;19.25;6.33;;;;;;;10.27;75.15;97738.52;1858218;76;26533;-83
2021/06/14 04:29:12;;;;;;;15.18;6.70;;;;;;;10.27;75.18;97737.17;1857695;75;25753;-82
2021/06/14 04:31:38;;;;;;;11.20;5.65;;;;;;;10.24;75.14;97738.95;1870394;75;26858;-81
2021/06/14 04:34:05;;;;;;;14.65;5.90;;;;;;;10.27;75.17;97747.97;1851291;76;25755;-82
2021/06/14 04:36:32;;;;;;;13.25;6.00;;;;;;;10.28;75.19;97744.23;1835115;76;25801;-82
2021/06/14 04:39:00;;;;;;;13.38;5.97;;;;;;;10.30;75.22;97747.57;1853895;76;25838;-82
2021/06/14 04:41:27;;;;;;;12.25;6.10;;;;;;;10.33;75.25;97749.88;1842752;77;25700;-83
2021/06/14 04:43:53;;;;;;;15.23;6.67;;;;;;;10.37;75.33;97746.27;1852119;76;27354;-83
2021/06/14 04:46:20;;;;;;;14.00;5.92;;;;;;;;;;1830636;75;25746;-82
2021/06/14 04:48:46;;;;;;;17.17;6.03;;;;;;;10.48;75.48;97746.20;1854437;76;25687;-82
2021/06/14 04:51:13;;;;;;;11.00;5.47;;;;;;;10.51;75.49;97747.95;1838236;75;25770;-82
2021/06/14 04:53:40;;;;;;;16.40;6.03;;;;;;;10.51;75.46;97749.81;1853533;75;25301;-83
2021/06/14 04:56:07;;;;;;;14.10;6.03;;;;;;;10.52;75.42;97736.13;1847103;76;27372;-81
2021/06/14 04:58:35;;;;;;;13.43;6.33;;;;;;;10.50;75.21;97740.09;1841574;76;25229;-81
2021/06/14 05:01:03;;;;;;;15.00;5.92;;;;;;;10.51;75.40;97745.25;1844024;76;25838;-83
2021/06/14 05:03:30;;;;;;;13.35;6.10;;;;;;;10.51;75.41;97743.07;1854156;76;25700;-82
2021/06/14 05:05:57;;;;;;;14.38;7.05;;;;;;;10.53;75.34;97749.10;1875056;75;25984;-82
2021/06/14 05:08:23;;;;;;;20.40;7.25;;;;;;;10.53;75.35;97759.90;1857235;75;27361;-82
2021/06/14 05:10:50;;;;;;;14.68;6.10;;;;;;;10.57;75.44;97755.77;1836943;76;25806;-82
2021/06/14 05:13:18;;;;;;;13.10;6.45;;;;;;;10.55;75.36;97747.88;1870809;75;25686;-82
2021/06/14 05:15:45;;;;;;;13.35;6.83;;;;;;;10.57;75.30;97740.41;1864511;75;25818;-82
2021/06/14 05:18:12;;;;;;;13.15;6.45;;;;;;;10.59;75.36;97738.86;1806252;78;25691;-82
2021/06/14 05:20:39;;;;;;;14.90;8.13;;;;;;;10.65;75.38;97736.68;1801019;78;27362;-81
2021/06/14 05:23:05;;;;;;;15.83;7.05;;;;;;;10.72;75.42;97745.13;1804492;79;25700;-82
2021/06/14 05:25:34;;;;;;;14.47;6.03;;;;;;;10.77;75.29;97745.84;1787891;78;25545;-82
2021/06/14 05:28:01;;;;;;;17.98;6.00;;;;;;;10.82;75.35;97740.68;1782470;79;25690;-82
2021/06/14 05:30:28;;;;;;;10.82;5.15;;;;;;;10.87;75.38;97746.28;1792007;79;25760;-81
2021/06/14 05:32:55;;;;;;;12.58;5.53;;;;;;;10.88;75.31;97744.41;1801015;79;27477;-81
2021/06/14 05:35:21;;;;;;;15.00;5.03;;;;;;;10.91;75.21;97748.90;1780734;79;25777;-82
2021/06/14 05:37:49;;;;;;;15.13;6.08;;;;;;;10.98;75.06;97752.46;1774662;79;25768;-82
2021/06/14 05:40:17;;;;;;;12.35;5.65;;;;;;;11.06;75.15;97756.31;1796451;79;26472;-81
2021/06/14 05:42:46;;;;;;;12.58;5.25;;;;;;;11.09;75.06;97751.02;1798243;78;25846;-82
2021/06/14 05:45:15;;;;;;;14.75;5.65;;;;;;;11.19;74.80;97744.68;1800915;79;28293;-82
2021/06/14 05:47:41;;;;;;;13.25;5.22;;;;;;;11.32;74.89;97739.80;1800580;78;25879;-80
2021/06/14 05:50:09;;;;;;;15.65;4.78;;;;;;;11.42;74.50;97743.75;1791967;78;25840;-83
2021/06/14 05:52:36;;;;;;;13.68;4.83;;;;;;;11.52;74.23;97748.73;1795893;78;26378;-82
2021/06/14 05:55:05;;;;;;;11.55;4.42;;;;;;;11.58;74.26;97747.08;1800657;79;26193;-82
2021/06/14 05:57:31;;;;;;;10.00;4.70;;;;;;;11.60;74.43;97750.38;1789421;79;28290;-82
2021/06/14 05:59:58;;;;;;;13.85;5.12;;;;;;;11.62;74.25;97755.89;1798685;79;25772;-82
2021/06/14 06:02:25;;;;;;;13.28;5.10;;;;;;;11.61;74.34;97752.87;1805654;78;25666;-83
2021/06/14 06:04:51;;;;;;;13.32;4.37;;;;;;;11.61;73.92;97751.52;1819014;78;25816;-83
2021/06/14 06:07:18;;;;;;;12.33;4.65;;;;;;;11.68;73.85;97750.18;1823439;78;26319;-82
2021/06/14 06:09:45;;;;;;;11.70;5.03;;;;;;;11.74;73.76;97750.16;1800560;78;28168;-82
2021/06/14 06:12:12;;;;;;;14.13;4.72;;;;;;;11.78;73.92;97746.03;1806085;78;25660;-82
2021/06/14 06:14:38;;;;;;;11.40;4.65;;;;;;;11.82;73.68;97748.64;1827749;78;26350;-84
2021/06/14 06:17:05;;;;;;;10.28;4.35;;;;;;;11.87;73.44;97745.28;1801523;78;26347;-83
2021/06/14 06:19:33;;;;;;;9.68;4.30;;;;;;;11.87;73.13;97743.41;1784778;79;25717;-83
2021/06/14 06:22:01;;;;;;;11.38;4.25;;;;;;;11.93;73.00;97739.56;1791411;78;28056;-83
2021/06/14 06:24:28;;;;;;;11.83;4.00;;;;;;;11.94;72.88;97735.81;1780108;79;25288;-83
2021/06/14 06:26:54;;;;;;;10.35;4.25;;;;;;;11.93;73.03;97740.91;1813001;78;25898;-83
2021/06/14 06:29:21;;;;;;;15.63;5.25;;;;;;;11.97;72.95;97731.31;1783799;79;26627;-83
2021/06/14 06:31:48;;;;;;;10.18;4.22;;;;;;;11.98;72.96;97735.67;1848231;75;25698;-84
2021/06/14 06:34:14;;;;;;;14.70;4.33;;;;;;;11.96;72.84;97739.11;1850605;76;27383;-85
2021/06/14 06:36:41;;;;;;;7.47;4.10;;;;;;;11.94;72.81;97736.64;1845685;77;25727;-85
2021/06/14 06:39:08;;;;;;;11.15;4.80;;;;;;;11.98;72.76;97734.33;1845837;76;25836;-84
2021/06/14 06:41:34;;;;;;;14.65;4.40;;;;;;;12.04;72.62;97730.27;1854919;76;25763;-85
2021/06/14 06:44:01;;;;;;;8.03;4.05;;;;;;;12.21;73.08;97726.03;1852993;76;25692;-85
2021/06/14 06:46:27;;;;;;;12.55;3.92;;;;;;;12.44;73.31;97730.93;1857242;76;27339;-84
2021/06/14 06:48:54;;;;;;;12.40;4.78;;;;;;;12.59;72.78;97728.78;1860791;75;25749;-87
2021/06/14 06:51:21;;;;;;;8.40;3.42;;;;;;;12.75;72.90;97721.20;1853809;76;25697;-84
2021/06/14 06:53:47;;;;;;;11.63;3.62;;;;;;;12.89;72.66;97722.79;1864040;76;25889;-83
2021/06/14 06:56:14;;;;;;;7.72;3.55;;;;;;;12.97;72.62;97724.70;1866686;76;25797;-83
2021/06/14 06:58:41;;;;;;;6.17;3.25;;;;;;;13.03;71.99;97718.12;1803618;79;27373;-84
2021/06/14 07:01:08;;;;;;;16.23;3.60;;;;;;;13.11;71.68;97719.20;1794501;79;25784;-83
2021/06/14 07:03:35;;;;;;;9.88;3.58;;;;;;;13.22;71.62;97715.28;1845944;76;25859;-83
2021/06/14 07:06:01;;;;;;;9.13;3.35;;;;;;;13.32;71.08;97709.36;1870955;76;25687;-83
2021/06/14 07:08:28;;;;;;;9.38;2.87;;;;;;;13.43;71.00;97703.21;1847297;76;26289;-82
2021/06/14 07:10:55;;;;;;;8.45;3.40;;;;;;;13.51;70.56;97706.19;1845796;77;27359;-83
2021/06/14 07:13:21;;;;;;;11.50;3.50;;;;;;;13.56;70.19;97710.40;1871760;76;26339;-85
2021/06/14 07:15:48;;;;;;;11.50;3.40;;;;;;;13.66;70.31;97710.72;1846598;76;25194;-83
2021/06/14 07:18:15;;;;;;;8.10;3.30;;;;;;;13.72;70.13;97711.19;1846036;77;25736;-82
2021/06/14 07:20:42;;;;;;;6.97;2.72;;;;;;;13.75;69.85;97707.20;1850408;76;25762;-80
2021/06/14 07:23:09;;;;;;;10.38;3.50;;;;;;;13.87;69.88;97700.81;1857638;76;27351;-83
2021/06/14 07:25:36;;;;;;;8.20;3.08;;;;;;;14.01;69.43;97705.02;1845929;76;25278;-83
2021/06/14 07:28:03;;;;;;;9.65;3.12;;;;;;;14.05;69.08;97707.59;1845753;76;25677;-83
2021/06/14 07:30:31;;;;;;;11.05;3.67;;;;;;;14.05;68.73;97707.59;1845754;77;25765;-86
2021/06/14 07:32:58;;;;;;;9.08;3.50;;;;;;;14.06;68.89;97703.83;1846146;77;25728;-83
2021/06/14 07:35:25;;;;;;;6.42;3.00;;;;;;;14.09;68.56;97693.58;1845272;76;28199;-83
2021/06/14 07:37:51;;;;;;;10.55;3.60;;;;;;;14.06;68.53;97697.05;1846198;77;25694;-82
2021/06/14 07:40:18;;;;;;;11.88;3.95;;;;;;;14.10;68.13;97701.50;1867886;76;25785;-82
2021/06/14 07:42:45;;;;;;;6.67;3.77;;;;;;;14.20;68.40;97707.75;1849952;76;25838;-82
2021/06/14 07:45:13;;;;;;;10.13;3.65;;;;;;;14.30;68.24;97705.33;1846093;77;25791;-85
2021/06/14 07:47:40;;;;;;;8.18;3.30;;;;;;;14.38;67.96;97710.44;1875249;76;28372;-84
2021/06/14 07:50:08;;;;;;;8.65;3.58;;;;;;;14.43;67.60;97713.87;1780766;79;25717;-83
2021/06/14 07:52:35;;;;;;;9.28;3.67;;;;;;;14.43;67.30;97711.98;1771761;79;25749;-82
2021/06/14 07:55:03;;;;;;;6.22;2.83;;;;;;;14.40;66.99;97711.08;1869198;76;26420;-82
2021/06/14 07:57:29;;;;;;;6.15;2.85;;;;;;;14.43;67.03;97705.20;1854421;76;25815;-85
2021/06/14 07:59:56;;;;;;;7.42;3.10;;;;;;;14.55;67.24;97697.93;1845927;76;28000;-85
2021/06/14 08:02:22;;;;;;;5.83;3.00;;;;;;;14.65;67.07;97706.36;1846069;77;25879;-82
2021/06/14 08:04:49;;;;;;;8.88;3.00;;;;;;;14.73;66.64;97704.66;1852024;76;25799;-84
2021/06/14 08:07:16;;;;;;;5.30;2.95;;;;;;;15.12;67.11;97713.30;1803252;79;25763;-86
2021/06/14 08:09:44;;;;;;;4.60;2.40;;;;;;;15.67;66.46;97716.63;1795422;79;25661;-83
2021/06/14 08:12:11;;;;;;;6.58;2.33;;;;;;;16.27;65.50;97711.42;1795424;79;27413;-82
2021/06/14 08:14:38;;;;;;;4.95;2.42;;;;;;;16.86;64.65;97708.83;1787083;79;25712;-81
2021/06/14 08:17:04;;;;;;;7.97;2.60;;;;;;;17.28;63.94;97712.03;1845948;77;25676;-82
2021/06/14 08:19:47;;;;;;;7.58;2.33;;;;;;;17.40;63.35;97714.14;1845951;77;26239;-84
2021/06/14 08:27:23;;;;;;;5.40;2.12;;;;;;;18.55;61.53;97705.20;1861875;76;25936;-85
2021/06/14 08:29:50;;;;;;;7.78;2.55;;;;;;;18.84;60.50;97699.53;1856522;76;25755;-82
2021/06/14 08:32:17;;;;;;;5.60;2.30;;;;;;;19.13;60.02;97707.78;1795490;79;26521;-83
2021/06/14 08:34:44;;;;;;;5.37;2.55;;;;;;;19.57;59.53;97698.06;1795529;79;25735;-85
2021/06/14 08:37:11;;;;;;;4.90;2.22;;;;;;;20.00;58.52;97707.44;1782797;79;27429;-84
2021/06/14 08:39:37;;;;;;;6.30;2.40;;;;;;;20.10;57.33;97712.15;1845915;76;25723;-83
2021/06/14 08:42:05;;;;;;;6.92;2.65;;;;;;;19.72;56.62;97707.23;1838470;77;25787;-84
2021/06/14 08:44:32;;;;;;;7.05;2.52;;;;;;;20.04;57.58;97699.52;1862359;76;26412;-85
2021/06/14 08:47:02;;;;;;;6.35;2.40;;;;;;;20.17;56.57;97709.98;1846089;77;25725;-83
2021/06/14 08:49:28;;;;;;;3.77;1.98;;;;;;;20.30;56.17;97709.52;1862056;76;27328;-83
2021/06/14 08:51:58;;;;;;;5.37;2.45;;;;;;;19.99;54.93;97706.33;1846068;77;26482;-83
2021/06/14 08:54:24;;;;;;;5.75;2.40;;;;;;;20.06;55.54;97704.17;1864004;76;25779;-84
2021/06/14 08:56:51;;;;;;;5.25;2.40;;;;;;;20.46;55.38;97692.09;1860435;76;25752;-83
2021/06/14 08:59:18;;;;;;;5.05;2.60;;;;;;;20.98;55.44;97689.80;1846090;76;25763;-85
2021/06/14 09:01:45;;;;;;;5.17;2.20;;;;;;;21.36;54.92;97693.18;1845972;77;27980;-84
2021/06/14 09:04:11;;;;;;;4.10;2.10;;;;;;;21.94;54.15;97689.03;1845631;77;26361;-83
2021/06/14 09:06:38;;;;;;;6.40;2.60;;;;;;;22.30;53.09;97693.09;1846138;76;25760;-85
2021/06/14 09:09:08;;;;;;;6.00;2.60;;;;;;;21.98;52.18;97698.92;1857784;76;25752;-84
2021/06/14 09:11:39;;;;;;;5.83;2.50;;;;;;;21.62;51.96;97701.67;1849835;76;25715;-83
2021/06/14 09:14:19;;;;;;;6.93;2.67;;;;;;;21.16;51.38;97697.50;1828499;77;28198;-84
2021/06/14 09:16:47;;;;;;;7.33;3.20;;;;;;;20.64;51.66;97705.06;1846085;76;25751;-84
2021/06/14 09:19:33;;;;;;;6.50;3.02;;;;;;;19.68;52.21;97700.62;1856061;76;25745;-83
2021/06/14 09:22:22;;;;;;;5.08;2.95;;;;;;;19.68;52.21;97700.62;1767182;80;25735;-84
2021/06/14 09:25:02;;;;;;;8.83;3.10;;;;;;;20.31;52.76;97697.45;1840039;76;25215;-85
2021/06/14 09:27:39;;;;;;;5.80;2.65;;;;;;;20.79;52.64;97692.75;1844647;76;27934;-86
2021/06/14 09:30:26;;;;;;;7.33;3.25;;;;;;;21.26;52.13;97680.79;1849100;76;25653;-85
2021/06/14 09:33:00;;;;;;;4.80;2.77;;;;;;;21.78;51.81;97673.10;1854860;77;25657;-82
2021/06/14 09:35:34;;;;;;;6.30;2.85;;;;;;;21.84;50.72;97682.17;1851041;77;26505;-84
2021/06/14 09:38:17;;;;;;;4.12;2.70;;;;;;;21.59;49.65;97691.27;1854371;77;25728;-83
2021/06/14 09:40:51;;;;;;;6.53;2.70;;;;;;;21.03;48.93;97677.44;1854913;76;28155;-84
2021/06/14 09:43:37;;;;;;;7.55;2.60;;;;;;;20.38;49.54;97677.53;1854718;77;25751;-82
2021/06/14 09:46:21;;;;;;;4.65;2.52;;;;;;;19.90;50.07;97651.76;1854699;76;25791;-84
2021/06/14 09:48:50;;;;;;;6.97;2.40;;;;;;;19.90;50.07;97651.76;1846877;75;25794;-83
2021/06/14 09:51:18;;;;;;;4.70;2.70;;;;;;;20.56;50.41;97665.79;1872787;75;25649;-84
2021/06/14 09:53:51;;;;;;;5.90;2.92;;;;;;;21.26;50.03;97653.34;1832606;77;27398;-82
2021/06/14 09:56:26;;;;;;;3.47;2.30;;;;;;;21.26;50.03;97653.34;1854711;77;25787;-84
2021/06/14 09:58:58;;;;;;;3.58;2.25;;;;;;;21.76;48.92;97673.92;1854926;77;25744;-83
2021/06/14 10:01:31;;;;;;;4.95;2.17;;;;;;;21.73;48.68;97637.41;1838406;77;26369;-84
2021/06/14 10:04:05;;;;;;;4.33;2.30;;;;;;;21.92;47.58;97682.43;1854940;77;26322;-83
2021/06/14 10:06:38;;;;;;;6.65;2.65;;;;;;;21.42;47.66;97679.71;1855066;77;28185;-87
2021/06/14 10:09:14;;;;;;;5.33;2.30;;;;;;;21.19;47.62;97679.15;1854437;77;44297;-84
2021/06/14 10:11:43;;;;;;;10.90;2.60;;;;;;;21.16;47.68;97659.06;1854608;77;25719;-83
2021/06/14 10:14:14;;;;;;;3.77;2.30;;;;;;;21.06;47.11;97665.92;1854914;76;26361;-82
2021/06/14 10:16:44;;;;;;;5.15;2.80;;;;;;;21.10;47.71;97664.30;1832193;76;25510;-83
2021/06/14 10:19:13;;;;;;;5.90;2.15;;;;;;;21.10;47.71;97664.30;1878155;75;27352;-87
2021/06/14 10:21:44;;;;;;;5.40;2.83;;;;;;;21.59;47.83;97659.67;1868140;75;25634;-87
2021/06/14 10:24:14;;;;;;;4.35;2.40;;;;;;;22.22;47.29;97647.73;1847039;76;25637;-87
2021/06/14 10:26:54;;;;;;;6.25;2.45;;;;;;;22.22;47.29;97647.73;1845893;75;26457;-85
2021/06/14 10:29:18;;;;;;;3.15;2.10;;;;;;;22.38;46.18;97643.83;1870635;75;26261;-86
2021/06/14 10:31:49;;;;;;;14.30;10.85;;;;;;;21.75;45.89;97642.59;1881842;75;27399;-84
2021/06/14 10:34:17;;;;;;;4.33;2.52;;;;;;;21.51;46.45;97642.35;1854634;77;25668;-83
2021/06/14 10:36:50;;;;;;;5.95;2.15;;;;;;;21.59;46.65;97649.23;1847953;76;25806;-83
2021/06/14 10:39:22;;;;;;;7.25;1.80;;;;;;;21.78;46.21;97641.50;1854745;76;25693;-84
2021/06/14 10:41:49;;;;;;;4.85;2.27;;;;;;;21.62;45.59;97652.23;1845990;77;25767;-84
2021/06/14 10:44:16;;;;;;;2.67;1.77;;;;;;;21.29;45.28;97641.81;1854866;77;27165;-83
2021/06/14 10:46:45;;;;;;;5.70;2.30;;;;;;;21.07;44.96;97650.28;1854797;77;25750;-84
2021/06/14 10:49:14;;;;;;;5.15;2.10;;;;;;;20.71;45.45;97651.59;1854872;77;25682;-82
2021/06/14 10:51:41;;;;;;;8.18;2.10;;;;;;;21.03;46.27;97646.42;1854781;77;26550;-83
2021/06/14 10:54:11;;;;;;;5.67;2.10;;;;;;;21.38;45.72;97640.16;1855142;76;25711;-83
2021/06/14 10:56:40;;;;;;;3.87;2.20;;;;;;;21.40;45.10;97637.97;1877388;75;27421;-87
2021/06/14 10:59:11;;;;;;;4.85;2.22;;;;;;;21.37;45.09;97644.03;1858522;75;26503;-82
2021/06/14 11:01:42;;;;;;;6.37;2.10;;;;;;;21.27;45.22;97636.59;1855079;76;25584;-82
2021/06/14 11:04:10;;;;;;;3.05;1.90;;;;;;;21.06;44.78;97635.73;1855021;77;26332;-82
2021/06/14 11:06:41;;;;;;;3.37;1.62;;;;;;;21.01;44.62;97648.06;1849527;77;25747;-85
2021/06/14 11:09:14;;;;;;;3.77;1.37;;;;;;;20.80;44.55;97635.41;1851443;77;28244;-84
2021/06/14 11:11:55;;;;;;;7.45;1.87;;;;;;;20.29;43.98;97642.07;1854884;77;25685;-84
2021/06/14 11:14:44;;;;;;;5.05;1.80;;;;;;;19.87;44.42;97641.32;1868062;75;25710;-84
2021/06/14 11:17:24;;;;;;;5.70;1.70;;;;;;;19.84;45.76;97628.97;1883156;75;26449;-82
2021/06/14 11:20:02;;;;;;;2.15;1.62;;;;;;;20.29;46.04;97626.99;1873177;75;25780;-84
2021/06/14 11:22:42;;;;;;;5.03;1.98;;;;;;;20.73;44.94;97606.06;1783505;78;27456;-85
2021/06/14 11:25:30;;;;;;;7.72;2.35;;;;;;;21.14;44.72;97614.59;1801496;78;25812;-83
2021/06/14 11:27:59;;;;;;;2.65;1.70;;;;;;;21.11;43.92;97620.66;1806719;79;26363;-84
2021/06/14 11:30:33;;;;;;;4.92;1.67;;;;;;;20.83;43.79;97618.42;1767853;80;25799;-84
2021/06/14 11:33:00;;;;;;;5.05;1.70;;;;;;;20.49;43.30;97614.78;1859570;76;25757;-84
2021/06/14 11:35:28;;;;;;;3.27;1.60;;;;;;;20.39;43.75;97614.75;1858791;75;27377;-85
2021/06/14 11:37:59;;;;;;;2.33;1.80;;;;;;;20.65;44.51;97611.51;1846047;76;25771;-85
2021/06/14 11:40:36;;;;;;;3.60;1.50;;;;;;;21.04;44.62;97602.25;1846153;76;25724;-83
2021/06/14 11:43:12;;;;;;;3.83;1.67;;;;;;;21.48;44.49;97600.36;1852867;76;25817;-92
2021/06/14 11:45:42;;;;;;;7.10;1.65;;;;;;;21.90;44.08;97587.06;1853638;76;25756;-81